sensor_id;sensor_type;location;lat;lon;timestamp;temperature;humidity
31003;DHT22;23051;-6.372;106.786;2023-08-07T00:01:13;26.60;75.20
31003;DHT22;23051;-6.372;106.786;2023-08-07T00:03:16;26.60;75.10
31003;DHT22;23051;-6.372;106.786;2023-08-07T00:05:19;26.70;75.20
31003;DHT22;23051;-6.372;106.786;2023-08-07T00:07:20;26.70;75.10
31003;DHT22;23051;-6.372;106.786;2023-08-07T00:09:24;26.70;75.10
31003;DHT22;23051;-6.372;106.786;2023-08-07T00:11:27;26.70;75.00
31003;DHT22;23051;-6.372;106.786;2023-08-07T00:13:30;26.80;75.00
31003;DHT22;23051;-6.372;106.786;2023-08-07T00:15:32;26.80;74.90
31003;DHT22;23051;-6.372;106.786;2023-08-07T00:17:36;26.90;74.80
31003;DHT22;23051;-6.372;106.786;2023-08-07T00:19:37;26.90;74.80
31003;DHT22;23051;-6.372;106.786;2023-08-07T00:21:38;26.90;74.70
31003;DHT22;23051;-6.372;106.786;2023-08-07T00:23:42;26.90;74.60
31003;DHT22;23051;-6.372;106.786;2023-08-07T00:25:44;27.00;74.60
31003;DHT22;23051;-6.372;106.786;2023-08-07T00:30:18;27.00;74.40
31003;DHT22;23051;-6.372;106.786;2023-08-07T00:32:19;27.10;74.40
31003;DHT22;23051;-6.372;106.786;2023-08-07T00:34:20;27.10;74.30
31003;DHT22;23051;-6.372;106.786;2023-08-07T00:36:22;27.10;74.20
31003;DHT22;23051;-6.372;106.786;2023-08-07T00:38:23;27.20;74.30
31003;DHT22;23051;-6.372;106.786;2023-08-07T00:40:24;27.20;74.20
31003;DHT22;23051;-6.372;106.786;2023-08-07T00:42:25;27.20;74.10
31003;DHT22;23051;-6.372;106.786;2023-08-07T00:44:26;27.20;74.00
31003;DHT22;23051;-6.372;106.786;2023-08-07T00:46:31;27.30;74.10
31003;DHT22;23051;-6.372;106.786;2023-08-07T00:48:32;27.30;74.00
31003;DHT22;23051;-6.372;106.786;2023-08-07T00:50:34;27.30;73.90
31003;DHT22;23051;-6.372;106.786;2023-08-07T00:52:37;27.40;74.00
31003;DHT22;23051;-6.372;106.786;2023-08-07T00:54:38;27.40;73.80
31003;DHT22;23051;-6.372;106.786;2023-08-07T00:56:40;27.40;73.80
31003;DHT22;23051;-6.372;106.786;2023-08-07T00:58:43;27.40;73.70
31003;DHT22;23051;-6.372;106.786;2023-08-07T01:00:45;27.50;73.70
31003;DHT22;23051;-6.372;106.786;2023-08-07T01:02:47;27.50;73.60
31003;DHT22;23051;-6.372;106.786;2023-08-07T01:07:16;27.60;73.50
31003;DHT22;23051;-6.372;106.786;2023-08-07T01:09:17;27.70;73.50
31003;DHT22;23051;-6.372;106.786;2023-08-07T01:13:25;27.70;73.30
31003;DHT22;23051;-6.372;106.786;2023-08-07T01:15:29;27.80;73.30
31003;DHT22;23051;-6.372;106.786;2023-08-07T01:17:31;27.80;73.20
31003;DHT22;23051;-6.372;106.786;2023-08-07T01:19:34;27.90;73.20
31003;DHT22;23051;-6.372;106.786;2023-08-07T01:21:37;27.90;73.00
31003;DHT22;23051;-6.372;106.786;2023-08-07T01:23:39;28.00;73.00
31003;DHT22;23051;-6.372;106.786;2023-08-07T01:25:42;28.00;73.00
31003;DHT22;23051;-6.372;106.786;2023-08-07T01:29:51;28.10;72.80
31003;DHT22;23051;-6.372;106.786;2023-08-07T01:31:53;28.10;72.80
31003;DHT22;23051;-6.372;106.786;2023-08-07T01:33:57;28.20;72.80
31003;DHT22;23051;-6.372;106.786;2023-08-07T01:36:03;28.20;72.60
31003;DHT22;23051;-6.372;106.786;2023-08-07T01:38:07;28.20;72.60
31003;DHT22;23051;-6.372;106.786;2023-08-07T01:40:11;28.30;72.60
31003;DHT22;23051;-6.372;106.786;2023-08-07T01:42:13;28.30;72.50
31003;DHT22;23051;-6.372;106.786;2023-08-07T01:44:14;28.40;72.60
31003;DHT22;23051;-6.372;106.786;2023-08-07T01:46:16;28.40;72.50
31003;DHT22;23051;-6.372;106.786;2023-08-07T01:48:17;28.40;72.40
31003;DHT22;23051;-6.372;106.786;2023-08-07T01:50:21;28.40;72.30
31003;DHT22;23051;-6.372;106.786;2023-08-07T01:52:24;28.40;72.30
31003;DHT22;23051;-6.372;106.786;2023-08-07T01:54:25;28.50;72.30
31003;DHT22;23051;-6.372;106.786;2023-08-07T01:56:27;28.50;72.20
31003;DHT22;23051;-6.372;106.786;2023-08-07T01:58:28;28.60;72.30
31003;DHT22;23051;-6.372;106.786;2023-08-07T02:00:29;28.60;72.20
31003;DHT22;23051;-6.372;106.786;2023-08-07T02:02:30;28.60;72.10
31003;DHT22;23051;-6.372;106.786;2023-08-07T02:04:31;28.70;72.10
31003;DHT22;23051;-6.372;106.786;2023-08-07T02:06:32;28.70;72.00
31003;DHT22;23051;-6.372;106.786;2023-08-07T02:08:33;28.70;71.90
31003;DHT22;23051;-6.372;106.786;2023-08-07T02:10:34;28.80;71.90
31003;DHT22;23051;-6.372;106.786;2023-08-07T02:12:36;28.80;71.80
31003;DHT22;23051;-6.372;106.786;2023-08-07T02:14:40;28.80;71.80
31003;DHT22;23051;-6.372;106.786;2023-08-07T02:16:44;28.90;71.80
31003;DHT22;23051;-6.372;106.786;2023-08-07T02:18:45;28.90;71.70
31003;DHT22;23051;-6.372;106.786;2023-08-07T02:20:46;29.00;71.70
31003;DHT22;23051;-6.372;106.786;2023-08-07T02:22:48;29.00;71.60
31003;DHT22;23051;-6.372;106.786;2023-08-07T02:24:50;29.00;71.60
31003;DHT22;23051;-6.372;106.786;2023-08-07T02:26:51;29.10;71.60
31003;DHT22;23051;-6.372;106.786;2023-08-07T02:28:55;29.10;71.50
31003;DHT22;23051;-6.372;106.786;2023-08-07T02:30:58;29.10;71.50
31003;DHT22;23051;-6.372;106.786;2023-08-07T02:32:59;29.20;71.50
31003;DHT22;23051;-6.372;106.786;2023-08-07T02:35:01;29.20;71.50
31003;DHT22;23051;-6.372;106.786;2023-08-07T02:37:02;29.20;71.30
31003;DHT22;23051;-6.372;106.786;2023-08-07T02:39:03;29.30;71.30
31003;DHT22;23051;-6.372;106.786;2023-08-07T02:41:04;29.30;71.20
31003;DHT22;23051;-6.372;106.786;2023-08-07T02:43:08;29.40;71.20
31003;DHT22;23051;-6.372;106.786;2023-08-07T02:45:09;29.40;71.10
31003;DHT22;23051;-6.372;106.786;2023-08-07T02:47:12;29.50;71.10
31003;DHT22;23051;-6.372;106.786;2023-08-07T02:49:13;29.50;71.00
31003;DHT22;23051;-6.372;106.786;2023-08-07T02:51:17;29.60;71.00
31003;DHT22;23051;-6.372;106.786;2023-08-07T02:53:18;29.60;70.80
31003;DHT22;23051;-6.372;106.786;2023-08-07T02:55:19;29.70;70.80
31003;DHT22;23051;-6.372;106.786;2023-08-07T02:57:20;29.70;70.90
31003;DHT22;23051;-6.372;106.786;2023-08-07T02:59:21;29.70;70.80
31003;DHT22;23051;-6.372;106.786;2023-08-07T03:01:23;29.70;70.70
31003;DHT22;23051;-6.372;106.786;2023-08-07T03:03:24;29.80;70.80
31003;DHT22;23051;-6.372;106.786;2023-08-07T03:05:25;29.80;70.60
31003;DHT22;23051;-6.372;106.786;2023-08-07T03:07:26;29.90;70.70
31003;DHT22;23051;-6.372;106.786;2023-08-07T03:09:27;29.90;70.60
31003;DHT22;23051;-6.372;106.786;2023-08-07T03:11:28;30.00;70.50
31003;DHT22;23051;-6.372;106.786;2023-08-07T03:13:30;30.00;70.40
31003;DHT22;23051;-6.372;106.786;2023-08-07T03:15:31;30.10;70.40
31003;DHT22;23051;-6.372;106.786;2023-08-07T03:17:32;30.10;70.30
31003;DHT22;23051;-6.372;106.786;2023-08-07T03:19:33;30.10;70.20
31003;DHT22;23051;-6.372;106.786;2023-08-07T03:21:37;30.20;70.20
31003;DHT22;23051;-6.372;106.786;2023-08-07T03:23:41;30.20;70.20
31003;DHT22;23051;-6.372;106.786;2023-08-07T03:25:42;30.20;70.10
31003;DHT22;23051;-6.372;106.786;2023-08-07T03:27:43;30.30;70.10
31003;DHT22;23051;-6.372;106.786;2023-08-07T03:29:44;30.30;70.00
31003;DHT22;23051;-6.372;106.786;2023-08-07T03:31:48;30.40;70.00
31003;DHT22;23051;-6.372;106.786;2023-08-07T03:33:49;30.50;69.90
31003;DHT22;23051;-6.372;106.786;2023-08-07T03:35:53;30.50;69.80
31003;DHT22;23051;-6.372;106.786;2023-08-07T03:37:54;30.50;69.70
31003;DHT22;23051;-6.372;106.786;2023-08-07T03:40:01;30.60;69.60
31003;DHT22;23051;-6.372;106.786;2023-08-07T03:42:02;30.70;69.50
31003;DHT22;23051;-6.372;106.786;2023-08-07T03:44:03;30.70;69.40
31003;DHT22;23051;-6.372;106.786;2023-08-07T03:46:04;30.80;69.40
31003;DHT22;23051;-6.372;106.786;2023-08-07T03:48:06;30.80;69.30
31003;DHT22;23051;-6.372;106.786;2023-08-07T03:50:10;30.90;69.30
31003;DHT22;23051;-6.372;106.786;2023-08-07T03:52:11;30.90;69.20
31003;DHT22;23051;-6.372;106.786;2023-08-07T03:54:14;31.00;69.20
31003;DHT22;23051;-6.372;106.786;2023-08-07T03:56:15;31.00;69.10
31003;DHT22;23051;-6.372;106.786;2023-08-07T03:58:16;31.10;69.00
31003;DHT22;23051;-6.372;106.786;2023-08-07T04:00:24;31.20;68.90
31003;DHT22;23051;-6.372;106.786;2023-08-07T04:02:28;31.30;68.70
31003;DHT22;23051;-6.372;106.786;2023-08-07T04:04:30;31.40;68.70
31003;DHT22;23051;-6.372;106.786;2023-08-07T04:06:32;31.40;68.50
31003;DHT22;23051;-6.372;106.786;2023-08-07T04:08:33;31.40;68.50
31003;DHT22;23051;-6.372;106.786;2023-08-07T04:10:43;31.40;68.40
31003;DHT22;23051;-6.372;106.786;2023-08-07T04:12:46;31.50;68.30
31003;DHT22;23051;-6.372;106.786;2023-08-07T04:14:47;31.60;68.40
31003;DHT22;23051;-6.372;106.786;2023-08-07T04:16:51;31.70;68.40
31003;DHT22;23051;-6.372;106.786;2023-08-07T04:18:52;31.70;68.20
31003;DHT22;23051;-6.372;106.786;2023-08-07T04:20:55;31.70;68.00
31003;DHT22;23051;-6.372;106.786;2023-08-07T04:22:56;31.80;68.10
31003;DHT22;23051;-6.372;106.786;2023-08-07T04:24:57;31.80;68.00
31003;DHT22;23051;-6.372;106.786;2023-08-07T04:26:58;31.80;68.10
31003;DHT22;23051;-6.372;106.786;2023-08-07T04:29:02;31.90;68.10
31003;DHT22;23051;-6.372;106.786;2023-08-07T04:31:04;31.90;68.00
31003;DHT22;23051;-6.372;106.786;2023-08-07T04:33:07;31.80;68.00
31003;DHT22;23051;-6.372;106.786;2023-08-07T04:35:08;31.90;68.20
31003;DHT22;23051;-6.372;106.786;2023-08-07T04:37:10;31.80;68.20
31003;DHT22;23051;-6.372;106.786;2023-08-07T04:39:11;31.80;68.30
31003;DHT22;23051;-6.372;106.786;2023-08-07T04:41:13;31.90;68.30
31003;DHT22;23051;-6.372;106.786;2023-08-07T04:43:15;32.00;68.00
31003;DHT22;23051;-6.372;106.786;2023-08-07T04:45:17;32.10;67.90
31003;DHT22;23051;-6.372;106.786;2023-08-07T04:47:18;32.20;67.80
31003;DHT22;23051;-6.372;106.786;2023-08-07T04:49:19;32.40;67.60
31003;DHT22;23051;-6.372;106.786;2023-08-07T04:51:21;32.50;67.20
31003;DHT22;23051;-6.372;106.786;2023-08-07T04:53:22;32.60;67.00
31003;DHT22;23051;-6.372;106.786;2023-08-07T04:55:25;32.70;66.80
31003;DHT22;23051;-6.372;106.786;2023-08-07T04:57:27;32.90;66.60
31003;DHT22;23051;-6.372;106.786;2023-08-07T04:59:31;33.10;66.30
31003;DHT22;23051;-6.372;106.786;2023-08-07T05:01:34;33.20;65.90
31003;DHT22;23051;-6.372;106.786;2023-08-07T05:03:38;33.40;65.70
31003;DHT22;23051;-6.372;106.786;2023-08-07T05:05:40;33.50;65.50
31003;DHT22;23051;-6.372;106.786;2023-08-07T05:07:44;33.60;65.40
31003;DHT22;23051;-6.372;106.786;2023-08-07T05:11:46;33.70;65.20
31003;DHT22;23051;-6.372;106.786;2023-08-07T05:13:47;33.70;65.40
31003;DHT22;23051;-6.372;106.786;2023-08-07T05:15:48;33.70;65.40
31003;DHT22;23051;-6.372;106.786;2023-08-07T05:20:12;33.80;65.50
31003;DHT22;23051;-6.372;106.786;2023-08-07T05:22:15;33.90;65.40
31003;DHT22;23051;-6.372;106.786;2023-08-07T05:26:47;34.00;64.90
31003;DHT22;23051;-6.372;106.786;2023-08-07T05:28:50;34.10;65.00
31003;DHT22;23051;-6.372;106.786;2023-08-07T05:30:56;34.10;65.00
31003;DHT22;23051;-6.372;106.786;2023-08-07T05:32:58;34.20;65.10
31003;DHT22;23051;-6.372;106.786;2023-08-07T05:35:04;34.20;65.00
31003;DHT22;23051;-6.372;106.786;2023-08-07T05:37:05;34.10;65.20
31003;DHT22;23051;-6.372;106.786;2023-08-07T05:39:07;34.00;65.40
31003;DHT22;23051;-6.372;106.786;2023-08-07T05:41:09;34.00;65.50
31003;DHT22;23051;-6.372;106.786;2023-08-07T05:43:10;33.90;65.50
31003;DHT22;23051;-6.372;106.786;2023-08-07T05:45:14;33.90;65.70
31003;DHT22;23051;-6.372;106.786;2023-08-07T05:47:17;33.90;65.80
31003;DHT22;23051;-6.372;106.786;2023-08-07T05:49:19;33.90;65.90
31003;DHT22;23051;-6.372;106.786;2023-08-07T05:51:24;33.80;66.00
31003;DHT22;23051;-6.372;106.786;2023-08-07T05:53:28;33.90;66.00
31003;DHT22;23051;-6.372;106.786;2023-08-07T05:55:30;34.00;65.90
31003;DHT22;23051;-6.372;106.786;2023-08-07T05:57:34;33.90;66.00
31003;DHT22;23051;-6.372;106.786;2023-08-07T05:59:35;33.70;66.10
31003;DHT22;23051;-6.372;106.786;2023-08-07T06:01:40;33.50;66.50
31003;DHT22;23051;-6.372;106.786;2023-08-07T06:03:42;33.40;67.00
31003;DHT22;23051;-6.372;106.786;2023-08-07T06:05:43;33.30;67.20
31003;DHT22;23051;-6.372;106.786;2023-08-07T06:07:46;33.30;67.30
31003;DHT22;23051;-6.372;106.786;2023-08-07T06:11:48;33.30;67.30
31003;DHT22;23051;-6.372;106.786;2023-08-07T06:13:50;33.40;67.30
31003;DHT22;23051;-6.372;106.786;2023-08-07T06:15:51;33.50;67.10
31003;DHT22;23051;-6.372;106.786;2023-08-07T06:17:52;33.60;66.90
31003;DHT22;23051;-6.372;106.786;2023-08-07T06:19:53;33.60;66.70
31003;DHT22;23051;-6.372;106.786;2023-08-07T06:21:54;33.60;66.60
31003;DHT22;23051;-6.372;106.786;2023-08-07T06:23:56;33.70;67.40
31003;DHT22;23051;-6.372;106.786;2023-08-07T06:25:57;33.70;66.60
31003;DHT22;23051;-6.372;106.786;2023-08-07T06:28:01;33.60;66.60
31003;DHT22;23051;-6.372;106.786;2023-08-07T06:30:02;33.60;66.70
31003;DHT22;23051;-6.372;106.786;2023-08-07T06:32:06;33.80;66.80
31003;DHT22;23051;-6.372;106.786;2023-08-07T06:34:18;33.80;66.50
31003;DHT22;23051;-6.372;106.786;2023-08-07T06:36:19;33.90;66.40
31003;DHT22;23051;-6.372;106.786;2023-08-07T06:38:24;34.00;66.20
31003;DHT22;23051;-6.372;106.786;2023-08-07T06:40:26;34.10;66.00
31003;DHT22;23051;-6.372;106.786;2023-08-07T06:42:27;34.20;65.70
31003;DHT22;23051;-6.372;106.786;2023-08-07T06:44:31;34.40;65.40
31003;DHT22;23051;-6.372;106.786;2023-08-07T06:46:41;34.60;65.10
31003;DHT22;23051;-6.372;106.786;2023-08-07T06:48:45;34.60;65.00
31003;DHT22;23051;-6.372;106.786;2023-08-07T06:50:46;34.50;65.00
31003;DHT22;23051;-6.372;106.786;2023-08-07T06:52:48;34.50;65.30
31003;DHT22;23051;-6.372;106.786;2023-08-07T06:54:49;34.40;65.40
31003;DHT22;23051;-6.372;106.786;2023-08-07T06:56:53;34.50;65.40
31003;DHT22;23051;-6.372;106.786;2023-08-07T06:59:01;34.50;65.30
31003;DHT22;23051;-6.372;106.786;2023-08-07T07:01:03;34.50;65.30
31003;DHT22;23051;-6.372;106.786;2023-08-07T07:03:09;34.40;65.50
31003;DHT22;23051;-6.372;106.786;2023-08-07T07:05:10;34.40;65.70
31003;DHT22;23051;-6.372;106.786;2023-08-07T07:07:11;34.40;65.70
31003;DHT22;23051;-6.372;106.786;2023-08-07T07:09:15;34.40;66.20
31003;DHT22;23051;-6.372;106.786;2023-08-07T07:11:16;34.50;65.60
31003;DHT22;23051;-6.372;106.786;2023-08-07T07:13:17;34.50;65.40
31003;DHT22;23051;-6.372;106.786;2023-08-07T07:15:18;34.50;65.30
31003;DHT22;23051;-6.372;106.786;2023-08-07T07:17:19;34.70;65.20
31003;DHT22;23051;-6.372;106.786;2023-08-07T07:19:22;34.90;64.90
31003;DHT22;23051;-6.372;106.786;2023-08-07T07:21:24;35.00;64.60
31003;DHT22;23051;-6.372;106.786;2023-08-07T07:23:26;35.10;64.50
31003;DHT22;23051;-6.372;106.786;2023-08-07T07:25:27;35.10;64.40
31003;DHT22;23051;-6.372;106.786;2023-08-07T07:27:29;35.10;64.40
31003;DHT22;23051;-6.372;106.786;2023-08-07T07:29:30;35.10;64.50
31003;DHT22;23051;-6.372;106.786;2023-08-07T07:31:33;34.90;64.70
31003;DHT22;23051;-6.372;106.786;2023-08-07T07:33:34;34.80;65.20
31003;DHT22;23051;-6.372;106.786;2023-08-07T07:35:38;34.70;65.50
31003;DHT22;23051;-6.372;106.786;2023-08-07T07:37:39;34.60;65.70
31003;DHT22;23051;-6.372;106.786;2023-08-07T07:39:43;34.50;65.80
31003;DHT22;23051;-6.372;106.786;2023-08-07T07:41:44;34.50;65.80
31003;DHT22;23051;-6.372;106.786;2023-08-07T07:43:47;34.50;65.80
31003;DHT22;23051;-6.372;106.786;2023-08-07T07:45:49;34.50;65.80
31003;DHT22;23051;-6.372;106.786;2023-08-07T07:47:50;34.50;66.70
31003;DHT22;23051;-6.372;106.786;2023-08-07T07:50:04;34.40;65.90
31003;DHT22;23051;-6.372;106.786;2023-08-07T07:52:05;34.40;66.00
31003;DHT22;23051;-6.372;106.786;2023-08-07T07:54:06;34.40;66.20
31003;DHT22;23051;-6.372;106.786;2023-08-07T07:56:08;34.30;66.40
31003;DHT22;23051;-6.372;106.786;2023-08-07T07:58:09;34.30;66.50
31003;DHT22;23051;-6.372;106.786;2023-08-07T08:00:10;34.30;66.40
31003;DHT22;23051;-6.372;106.786;2023-08-07T08:02:13;34.30;66.30
31003;DHT22;23051;-6.372;106.786;2023-08-07T08:04:16;34.30;66.30
31003;DHT22;23051;-6.372;106.786;2023-08-07T08:06:28;34.40;66.30
31003;DHT22;23051;-6.372;106.786;2023-08-07T08:08:56;34.40;66.20
31003;DHT22;23051;-6.372;106.786;2023-08-07T08:10:58;34.40;66.00
31003;DHT22;23051;-6.372;106.786;2023-08-07T08:12:59;34.50;65.80
31003;DHT22;23051;-6.372;106.786;2023-08-07T08:15:00;34.50;65.60
31003;DHT22;23051;-6.372;106.786;2023-08-07T08:17:04;34.60;65.70
31003;DHT22;23051;-6.372;106.786;2023-08-07T08:19:05;34.50;65.70
31003;DHT22;23051;-6.372;106.786;2023-08-07T08:21:08;34.50;65.70
31003;DHT22;23051;-6.372;106.786;2023-08-07T08:23:12;34.50;65.90
31003;DHT22;23051;-6.372;106.786;2023-08-07T08:25:13;34.30;66.10
31003;DHT22;23051;-6.372;106.786;2023-08-07T08:27:14;34.20;66.40
31003;DHT22;23051;-6.372;106.786;2023-08-07T08:29:20;34.20;66.40
31003;DHT22;23051;-6.372;106.786;2023-08-07T08:31:25;34.00;66.80
31003;DHT22;23051;-6.372;106.786;2023-08-07T08:33:27;33.90;67.10
31003;DHT22;23051;-6.372;106.786;2023-08-07T08:35:28;33.70;67.40
31003;DHT22;23051;-6.372;106.786;2023-08-07T08:37:31;33.60;67.70
31003;DHT22;23051;-6.372;106.786;2023-08-07T08:39:33;33.40;68.20
31003;DHT22;23051;-6.372;106.786;2023-08-07T08:41:34;33.30;68.40
31003;DHT22;23051;-6.372;106.786;2023-08-07T08:43:41;33.30;68.50
31003;DHT22;23051;-6.372;106.786;2023-08-07T08:45:44;33.30;68.50
31003;DHT22;23051;-6.372;106.786;2023-08-07T08:47:45;33.20;68.50
31003;DHT22;23051;-6.372;106.786;2023-08-07T08:49:48;33.10;68.70
31003;DHT22;23051;-6.372;106.786;2023-08-07T08:51:55;33.10;68.90
31003;DHT22;23051;-6.372;106.786;2023-08-07T08:53:59;33.10;69.00
31003;DHT22;23051;-6.372;106.786;2023-08-07T08:56:04;33.00;69.10
31003;DHT22;23051;-6.372;106.786;2023-08-07T08:58:06;33.00;69.90
31003;DHT22;23051;-6.372;106.786;2023-08-07T09:00:08;33.10;69.00
31003;DHT22;23051;-6.372;106.786;2023-08-07T09:02:28;33.10;68.70
31003;DHT22;23051;-6.372;106.786;2023-08-07T09:04:31;33.20;68.50
31003;DHT22;23051;-6.372;106.786;2023-08-07T09:06:33;33.20;68.50
31003;DHT22;23051;-6.372;106.786;2023-08-07T09:08:34;33.20;68.30
31003;DHT22;23051;-6.372;106.786;2023-08-07T09:10:36;33.40;68.20
31003;DHT22;23051;-6.372;106.786;2023-08-07T09:12:41;33.50;67.80
31003;DHT22;23051;-6.372;106.786;2023-08-07T09:14:43;33.60;67.30
31003;DHT22;23051;-6.372;106.786;2023-08-07T09:16:50;33.70;67.30
31003;DHT22;23051;-6.372;106.786;2023-08-07T09:18:51;33.60;67.30
31003;DHT22;23051;-6.372;106.786;2023-08-07T09:20:55;33.60;67.30
31003;DHT22;23051;-6.372;106.786;2023-08-07T09:22:57;33.60;67.40
31003;DHT22;23051;-6.372;106.786;2023-08-07T09:24:58;33.50;67.40
31003;DHT22;23051;-6.372;106.786;2023-08-07T09:27:00;33.50;67.60
31003;DHT22;23051;-6.372;106.786;2023-08-07T09:29:02;33.40;67.70
31003;DHT22;23051;-6.372;106.786;2023-08-07T09:31:05;33.40;67.80
31003;DHT22;23051;-6.372;106.786;2023-08-07T09:33:07;33.40;67.80
31003;DHT22;23051;-6.372;106.786;2023-08-07T09:35:11;33.50;67.90
31003;DHT22;23051;-6.372;106.786;2023-08-07T09:37:13;33.40;67.90
31003;DHT22;23051;-6.372;106.786;2023-08-07T09:39:16;33.40;68.00
31003;DHT22;23051;-6.372;106.786;2023-08-07T09:41:29;33.30;68.00
31003;DHT22;23051;-6.372;106.786;2023-08-07T09:43:36;33.30;68.30
31003;DHT22;23051;-6.372;106.786;2023-08-07T09:45:39;33.20;68.50
31003;DHT22;23051;-6.372;106.786;2023-08-07T09:47:41;33.10;68.60
31003;DHT22;23051;-6.372;106.786;2023-08-07T09:49:42;33.10;68.80
31003;DHT22;23051;-6.372;106.786;2023-08-07T09:51:49;33.00;68.80
31003;DHT22;23051;-6.372;106.786;2023-08-07T09:53:53;33.00;68.80
31003;DHT22;23051;-6.372;106.786;2023-08-07T09:55:54;32.90;68.90
31003;DHT22;23051;-6.372;106.786;2023-08-07T09:57:58;32.80;69.10
31003;DHT22;23051;-6.372;106.786;2023-08-07T10:00:00;32.70;69.30
31003;DHT22;23051;-6.372;106.786;2023-08-07T10:02:05;32.60;69.70
31003;DHT22;23051;-6.372;106.786;2023-08-07T10:04:06;32.40;69.70
31003;DHT22;23051;-6.372;106.786;2023-08-07T10:06:10;32.40;69.90
31003;DHT22;23051;-6.372;106.786;2023-08-07T10:08:14;32.40;70.10
31003;DHT22;23051;-6.372;106.786;2023-08-07T10:10:18;32.30;70.30
31003;DHT22;23051;-6.372;106.786;2023-08-07T10:12:22;32.20;70.50
31003;DHT22;23051;-6.372;106.786;2023-08-07T10:14:23;32.10;70.70
31003;DHT22;23051;-6.372;106.786;2023-08-07T10:16:26;32.00;70.80
31003;DHT22;23051;-6.372;106.786;2023-08-07T10:18:28;31.90;71.00
31003;DHT22;23051;-6.372;106.786;2023-08-07T10:20:30;31.80;71.00
31003;DHT22;23051;-6.372;106.786;2023-08-07T10:22:31;31.80;71.10
31003;DHT22;23051;-6.372;106.786;2023-08-07T10:24:33;31.80;71.10
31003;DHT22;23051;-6.372;106.786;2023-08-07T10:26:39;31.80;71.00
31003;DHT22;23051;-6.372;106.786;2023-08-07T10:28:44;31.80;71.00
31003;DHT22;23051;-6.372;106.786;2023-08-07T10:30:48;31.80;71.00
31003;DHT22;23051;-6.372;106.786;2023-08-07T10:32:52;31.80;71.00
31003;DHT22;23051;-6.372;106.786;2023-08-07T10:34:57;31.70;71.00
31003;DHT22;23051;-6.372;106.786;2023-08-07T10:36:59;31.70;71.00
31003;DHT22;23051;-6.372;106.786;2023-08-07T10:39:14;31.80;71.00
31003;DHT22;23051;-6.372;106.786;2023-08-07T10:41:16;31.80;70.80
31003;DHT22;23051;-6.372;106.786;2023-08-07T10:43:21;31.90;70.60
31003;DHT22;23051;-6.372;106.786;2023-08-07T10:45:24;32.20;70.20
31003;DHT22;23051;-6.372;106.786;2023-08-07T10:51:35;32.70;68.90
31003;DHT22;23051;-6.372;106.786;2023-08-07T10:53:37;32.90;68.50
31003;DHT22;23051;-6.372;106.786;2023-08-07T10:55:46;33.10;68.00
31003;DHT22;23051;-6.372;106.786;2023-08-07T10:57:47;33.10;67.70
31003;DHT22;23051;-6.372;106.786;2023-08-07T10:59:49;33.10;67.70
31003;DHT22;23051;-6.372;106.786;2023-08-07T11:01:51;33.10;67.80
31003;DHT22;23051;-6.372;106.786;2023-08-07T11:05:58;33.00;67.90
31003;DHT22;23051;-6.372;106.786;2023-08-07T11:08:00;32.90;68.10
31003;DHT22;23051;-6.372;106.786;2023-08-07T11:10:01;32.90;68.30
31003;DHT22;23051;-6.372;106.786;2023-08-07T11:12:09;32.90;68.30
31003;DHT22;23051;-6.372;106.786;2023-08-07T11:14:14;32.90;68.40
31003;DHT22;23051;-6.372;106.786;2023-08-07T11:16:15;32.90;68.20
31003;DHT22;23051;-6.372;106.786;2023-08-07T11:18:16;33.10;68.10
31003;DHT22;23051;-6.372;106.786;2023-08-07T11:20:19;33.10;67.90
31003;DHT22;23051;-6.372;106.786;2023-08-07T11:22:20;33.10;67.80
31003;DHT22;23051;-6.372;106.786;2023-08-07T11:24:26;33.10;67.70
31003;DHT22;23051;-6.372;106.786;2023-08-07T11:26:27;33.30;67.70
31003;DHT22;23051;-6.372;106.786;2023-08-07T11:28:29;33.20;67.60
31003;DHT22;23051;-6.372;106.786;2023-08-07T11:30:32;33.20;67.60
31003;DHT22;23051;-6.372;106.786;2023-08-07T11:32:34;33.20;67.60
31003;DHT22;23051;-6.372;106.786;2023-08-07T11:34:35;33.30;67.50
31003;DHT22;23051;-6.372;106.786;2023-08-07T11:36:41;33.40;67.30
31003;DHT22;23051;-6.372;106.786;2023-08-07T11:38:43;33.50;67.10
31003;DHT22;23051;-6.372;106.786;2023-08-07T11:40:46;33.60;66.90
31003;DHT22;23051;-6.372;106.786;2023-08-07T11:42:47;33.60;66.70
31003;DHT22;23051;-6.372;106.786;2023-08-07T11:44:51;33.70;66.60
31003;DHT22;23051;-6.372;106.786;2023-08-07T11:46:52;33.80;67.50
31003;DHT22;23051;-6.372;106.786;2023-08-07T11:48:55;33.80;66.60
31003;DHT22;23051;-6.372;106.786;2023-08-07T11:50:57;33.80;66.50
31003;DHT22;23051;-6.372;106.786;2023-08-07T11:53:02;33.80;66.50
31003;DHT22;23051;-6.372;106.786;2023-08-07T11:55:03;33.80;66.40
31003;DHT22;23051;-6.372;106.786;2023-08-07T11:59:11;33.90;66.40
31003;DHT22;23051;-6.372;106.786;2023-08-07T12:01:15;33.90;66.40
31003;DHT22;23051;-6.372;106.786;2023-08-07T12:05:21;33.90;66.40
31003;DHT22;23051;-6.372;106.786;2023-08-07T12:07:23;33.90;66.40
31003;DHT22;23051;-6.372;106.786;2023-08-07T12:09:27;33.90;66.50
31003;DHT22;23051;-6.372;106.786;2023-08-07T12:11:31;33.80;66.50
31003;DHT22;23051;-6.372;106.786;2023-08-07T12:13:32;33.80;66.50
31003;DHT22;23051;-6.372;106.786;2023-08-07T12:15:37;33.80;66.50
31003;DHT22;23051;-6.372;106.786;2023-08-07T12:17:40;33.80;66.50
31003;DHT22;23051;-6.372;106.786;2023-08-07T12:19:41;33.80;66.50
31003;DHT22;23051;-6.372;106.786;2023-08-07T12:21:43;33.90;67.40
31003;DHT22;23051;-6.372;106.786;2023-08-07T12:23:47;33.80;66.50
31003;DHT22;23051;-6.372;106.786;2023-08-07T12:25:51;33.80;66.50
31003;DHT22;23051;-6.372;106.786;2023-08-07T12:27:55;33.80;66.60
31003;DHT22;23051;-6.372;106.786;2023-08-07T12:29:58;33.80;66.60
31003;DHT22;23051;-6.372;106.786;2023-08-07T12:31:59;33.80;66.70
31003;DHT22;23051;-6.372;106.786;2023-08-07T12:34:05;33.80;66.80
31003;DHT22;23051;-6.372;106.786;2023-08-07T12:36:09;33.70;66.90
31003;DHT22;23051;-6.372;106.786;2023-08-07T12:38:11;33.70;66.80
31003;DHT22;23051;-6.372;106.786;2023-08-07T12:40:15;33.70;66.90
31003;DHT22;23051;-6.372;106.786;2023-08-07T12:42:23;33.70;66.90
31003;DHT22;23051;-6.372;106.786;2023-08-07T12:44:26;33.70;66.90
31003;DHT22;23051;-6.372;106.786;2023-08-07T12:46:30;33.70;66.90
31003;DHT22;23051;-6.372;106.786;2023-08-07T12:50:34;33.70;66.80
31003;DHT22;23051;-6.372;106.786;2023-08-07T12:52:37;33.70;66.90
31003;DHT22;23051;-6.372;106.786;2023-08-07T12:54:44;33.70;66.90
31003;DHT22;23051;-6.372;106.786;2023-08-07T12:56:47;33.70;66.80
31003;DHT22;23051;-6.372;106.786;2023-08-07T12:58:48;33.70;66.80
31003;DHT22;23051;-6.372;106.786;2023-08-07T13:00:53;33.60;66.90
31003;DHT22;23051;-6.372;106.786;2023-08-07T13:02:56;33.50;67.90